Time;durP1;ratioP1;P1;durP2;ratioP2;P2;SDS_P1;SDS_P2;PMS_P1;PMS_P2;Temp;Humidity;BMP_temperature;BMP_pressure;BME280_temperature;BME280_humidity;BME280_pressure;Samples;Min_cycle;Max_cycle;Signal;HPM_P1;HPM_P2
2022/10/05 00:00:59;;;;;;;3.97;3.15;;;;;;;22.01;47.47;101621.88;5011070;28;20049;-70
2022/10/05 00:03:29;;;;;;;4.05;3.30;;;;;;;22.03;47.56;101619.88;4993866;28;20422;-69
2022/10/05 00:05:56;;;;;;;4.25;3.30;;;;;;;22.03;47.73;101630.47;4994404;28;20038;-69
2022/10/05 00:08:24;;;;;;;3.95;3.40;;;;;;;22.05;47.67;101619.72;4992889;28;20049;-70
2022/10/05 00:10:50;;;;;;;4.32;3.22;;;;;;;22.03;47.41;101614.56;4996505;28;20048;-70
2022/10/05 00:13:19;;;;;;;4.68;3.20;;;;;;;22.05;47.76;101606.47;4998078;28;20085;-70
2022/10/05 00:15:46;;;;;;;3.40;3.10;;;;;;;22.02;47.33;101599.66;4994936;28;20040;-70
2022/10/05 00:18:17;;;;;;;3.90;3.05;;;;;;;22.06;47.56;101608.13;4997667;28;20033;-70
2022/10/05 00:20:43;;;;;;;4.05;3.03;;;;;;;22.03;47.54;101613.75;4993252;28;20034;-70
2022/10/05 00:23:19;;;;;;;3.80;3.40;;;;;;;22.01;47.55;101608.63;4994399;28;20356;-69
2022/10/05 00:25:45;;;;;;;4.65;3.20;;;;;;;22.03;47.58;101619.06;4992378;28;20492;-69
2022/10/05 00:28:25;;;;;;;4.00;3.13;;;;;;;22.03;47.49;101617.22;4995591;28;20111;-70
2022/10/05 00:30:54;;;;;;;3.80;3.25;;;;;;;22.04;47.78;101610.09;5015533;28;20037;-70
2022/10/05 00:33:19;;;;;;;4.93;3.80;;;;;;;22.00;47.45;101593.72;5007130;28;20372;-69
2022/10/05 00:35:45;;;;;;;5.07;3.45;;;;;;;22.03;47.72;101593.34;5015890;28;20628;-69
2022/10/05 00:38:11;;;;;;;4.20;3.20;;;;;;;21.98;47.84;101587.75;4999086;28;20041;-70
2022/10/05 00:40:58;;;;;;;4.32;3.30;;;;;;;22.03;47.39;101588.06;5018378;28;20042;-69
2022/10/05 00:43:58;;;;;;;6.40;3.10;;;;;;;22.05;47.66;101581.78;5013790;28;20041;-69
2022/10/05 00:46:42;;;;;;;5.25;3.30;;;;;;;22.03;47.53;101566.00;5014013;28;20063;-70
2022/10/05 00:49:23;;;;;;;4.13;3.53;;;;;;;22.03;47.57;101569.47;5015419;28;20045;-70
2022/10/05 00:52:22;;;;;;;3.97;3.05;;;;;;;22.07;47.82;101575.28;5017223;28;20037;-70
2022/10/05 00:55:09;;;;;;;4.35;3.22;;;;;;;22.07;47.42;101574.47;5001211;28;20824;-69
2022/10/05 00:58:05;;;;;;;5.07;3.33;;;;;;;22.09;47.73;101573.31;5017809;28;20113;-69
2022/10/05 01:00:34;;;;;;;3.80;3.05;;;;;;;22.07;47.74;101563.84;5014875;28;20124;-70
2022/10/05 01:03:24;;;;;;;4.15;3.20;;;;;;;22.08;47.47;101555.72;5014563;28;20538;-69
2022/10/05 01:06:16;;;;;;;6.38;2.95;;;;;;;22.08;47.55;101555.72;5014827;28;20507;-69
2022/10/05 01:09:07;;;;;;;4.38;3.10;;;;;;;22.09;47.66;101556.56;4999299;28;20056;-70
2022/10/05 01:12:00;;;;;;;4.20;3.15;;;;;;;22.08;47.67;101541.63;5011709;28;20033;-70
2022/10/05 01:14:29;;;;;;;5.97;3.58;;;;;;;22.06;47.38;101538.34;5015331;28;20398;-69
2022/10/05 01:17:30;;;;;;;4.80;2.83;;;;;;;22.05;47.58;101534.84;5013040;28;20647;-70
2022/10/05 01:20:08;;;;;;;4.35;3.60;;;;;;;22.06;47.41;101533.84;5011913;28;20033;-69
2022/10/05 01:22:58;;;;;;;5.28;3.83;;;;;;;22.05;47.49;101518.94;5019012;28;20060;-70
2022/10/05 01:25:48;;;;;;;3.20;2.90;;;;;;;22.03;47.50;101510.31;5012824;28;20483;-69
2022/10/05 01:28:24;;;;;;;5.35;3.25;;;;;;;22.07;47.55;101521.41;4996692;28;20049;-69
2022/10/05 01:30:59;;;;;;;3.38;2.85;;;;;;;22.07;47.65;101532.84;5016903;28;20030;-70
2022/10/05 01:33:30;;;;;;;4.38;3.20;;;;;;;22.06;47.57;101527.72;5011947;28;20932;-70
2022/10/05 01:36:21;;;;;;;3.45;3.10;;;;;;;22.06;47.37;101517.94;5013367;28;20057;-71
2022/10/05 01:39:02;;;;;;;4.28;3.15;;;;;;;22.06;47.41;101517.94;4996679;28;20133;-69
2022/10/05 01:41:56;;;;;;;3.35;2.97;;;;;;;22.08;47.42;101512.47;5012119;28;20124;-70
2022/10/05 01:44:32;;;;;;;4.28;3.10;;;;;;;22.09;47.33;101514.97;5009739;28;20041;-69
2022/10/05 01:47:20;;;;;;;3.67;2.95;;;;;;;22.01;47.66;101507.00;5009849;28;21002;-69
2022/10/05 01:50:00;;;;;;;3.47;3.17;;;;;;;22.09;47.71;101525.56;5013445;28;20041;-69
2022/10/05 01:52:31;;;;;;;;;;;;;;;22.08;47.66;101509.81;5002237;28;20042;-70
2022/10/05 01:55:21;;;;;;;4.05;3.28;;;;;;;22.07;47.74;101513.47;4997653;28;20382;-69
2022/10/05 01:57:56;;;;;;;4.72;3.30;;;;;;;22.07;47.33;101508.16;4996591;28;20276;-69
2022/10/05 02:00:22;;;;;;;3.95;3.10;;;;;;;22.08;47.50;101499.19;5010721;28;20052;-70
2022/10/05 02:02:55;;;;;;;5.80;3.17;;;;;;;22.09;47.79;101500.88;4980649;28;20572;-69
2022/10/05 02:05:28;;;;;;;3.83;2.92;;;;;;;22.10;47.39;101491.91;4997309;28;20112;-70
2022/10/05 02:08:14;;;;;;;4.25;2.90;;;;;;;22.05;47.31;101489.78;5009788;28;20033;-69
2022/10/05 02:11:13;;;;;;;3.70;2.70;;;;;;;22.00;47.70;101462.94;4993528;28;20095;-69
2022/10/05 02:13:43;;;;;;;4.03;3.33;;;;;;;22.08;47.46;101470.03;4979921;28;20056;-69
2022/10/05 02:16:13;;;;;;;4.25;3.03;;;;;;;22.09;47.79;101469.88;4994854;28;20463;-69
2022/10/05 02:18:51;;;;;;;3.65;3.03;;;;;;;22.11;47.60;101475.00;4987016;28;20705;-69
2022/10/05 02:21:18;;;;;;;3.72;3.00;;;;;;;22.09;47.70;101483.13;5017964;28;20037;-68
2022/10/05 02:23:46;;;;;;;3.53;2.78;;;;;;;22.09;47.81;101487.63;4999470;28;20049;-68
2022/10/05 02:26:12;;;;;;;4.60;3.10;;;;;;;22.08;47.71;101480.63;5016443;28;20041;-68
2022/10/05 02:29:00;;;;;;;4.32;3.22;;;;;;;22.09;47.31;101485.78;5017621;28;20056;-68
2022/10/05 02:31:39;;;;;;;4.10;3.15;;;;;;;22.11;47.42;101485.59;5012420;28;20112;-68
2022/10/05 02:34:26;;;;;;;4.82;2.85;;;;;;;22.10;47.28;101486.59;5013317;28;20037;-68
2022/10/05 02:37:15;;;;;;;4.50;3.03;;;;;;;22.09;47.53;101488.44;5004704;28;20037;-69
2022/10/05 02:40:04;;;;;;;3.83;3.30;;;;;;;22.10;47.37;101481.31;5000265;28;20034;-70
2022/10/05 02:43:20;;;;;;;3.45;2.92;;;;;;;22.07;47.79;101471.84;4996077;28;20037;-68
2022/10/05 02:46:07;;;;;;;3.13;2.83;;;;;;;22.07;47.65;101479.81;4992291;28;20053;-68
2022/10/05 02:48:50;;;;;;;4.35;3.05;;;;;;;22.08;47.42;101475.31;5021344;28;20043;-68
2022/10/05 02:51:23;;;;;;;3.17;2.80;;;;;;;22.08;47.48;101473.50;5002197;28;20033;-70
2022/10/05 02:54:07;;;;;;;5.40;3.15;;;;;;;22.10;47.62;101473.34;5017664;28;20044;-68
2022/10/05 02:56:49;;;;;;;3.45;2.80;;;;;;;22.03;47.77;101470.53;5018446;28;20036;-69
2022/10/05 02:59:34;;;;;;;4.45;2.80;;;;;;;22.08;47.74;101477.97;5000403;28;20054;-69
2022/10/05 03:02:21;;;;;;;3.70;3.15;;;;;;;22.05;47.79;101465.91;5017812;28;20033;-68
2022/10/05 03:05:05;;;;;;;3.55;2.70;;;;;;;22.05;47.50;101451.81;5004576;28;20041;-69
2022/10/05 03:07:48;;;;;;;4.00;3.10;;;;;;;22.05;47.74;101459.78;4982955;28;20368;-68
2022/10/05 03:10:33;;;;;;;4.28;2.85;;;;;;;22.07;47.34;101463.06;4998732;28;20454;-68
2022/10/05 03:13:13;;;;;;;3.47;2.88;;;;;;;22.06;47.59;101454.28;5010954;28;20033;-69
2022/10/05 03:15:50;;;;;;;4.40;2.50;;;;;;;22.05;47.48;101459.78;5000364;28;20770;-68
2022/10/05 03:18:26;;;;;;;3.83;2.90;;;;;;;22.09;47.71;101466.41;5018920;28;20033;-68
2022/10/05 03:21:04;;;;;;;5.15;2.97;;;;;;;22.07;47.86;101474.50;4998950;28;20061;-69
2022/10/05 03:23:52;;;;;;;3.45;2.80;;;;;;;22.08;47.73;101470.03;4998653;28;20419;-68
2022/10/05 03:26:47;;;;;;;4.03;2.83;;;;;;;22.09;47.66;101471.69;5010414;28;20037;-68
2022/10/05 03:29:44;;;;;;;2.90;2.60;;;;;;;22.08;47.38;101468.19;5014557;28;20148;-69
2022/10/05 03:32:34;;;;;;;3.33;2.75;;;;;;;22.08;47.48;101459.41;5002740;28;20052;-69
2022/10/05 03:35:29;;;;;;;3.10;2.63;;;;;;;22.07;47.50;101457.75;5003224;28;20033;-68
2022/10/05 03:38:17;;;;;;;3.25;2.65;;;;;;;22.06;47.64;101467.56;5015889;28;20551;-68
2022/10/05 03:41:07;;;;;;;4.60;3.35;;;;;;;22.07;47.59;101465.72;5000543;28;20549;-68
2022/10/05 03:43:48;;;;;;;3.63;2.72;;;;;;;22.08;47.61;101464.72;5000702;28;20387;-69
2022/10/05 03:46:51;;;;;;;4.35;3.00;;;;;;;22.08;47.57;101459.41;4998701;28;20044;-69
2022/10/05 03:49:20;;;;;;;4.07;2.80;;;;;;;22.08;47.57;101452.28;4998184;28;20045;-68
2022/10/05 03:51:50;;;;;;;4.00;2.65;;;;;;;22.08;47.53;101441.66;4999394;28;20132;-70
2022/10/05 03:54:25;;;;;;;3.42;2.75;;;;;;;22.02;47.90;101432.56;4995446;28;20116;-68
2022/10/05 03:56:56;;;;;;;3.30;2.58;;;;;;;22.07;47.60;101436.53;5014806;28;20125;-69
2022/10/05 03:59:40;;;;;;;3.80;3.10;;;;;;;22.08;47.73;101432.88;5013756;28;20076;-68
2022/10/05 04:02:18;;;;;;;3.80;3.00;;;;;;;22.07;47.75;101426.75;4997340;28;20029;-68
2022/10/05 04:04:51;;;;;;;4.07;3.10;;;;;;;22.07;47.65;101426.75;5015097;28;20041;-68
2022/10/05 04:07:28;;;;;;;3.20;2.70;;;;;;;22.06;47.43;101424.28;4994511;28;20164;-69
2022/10/05 04:09:56;;;;;;;3.78;3.03;;;;;;;22.02;47.69;101411.38;4999943;28;20034;-69
2022/10/05 04:12:31;;;;;;;3.72;3.00;;;;;;;22.07;47.55;101417.97;4998035;28;20021;-69
2022/10/05 04:15:13;;;;;;;3.92;3.20;;;;;;;22.05;47.69;101427.94;5000476;28;20712;-69
2022/10/05 04:17:43;;;;;;;3.30;2.70;;;;;;;22.05;47.71;101415.50;5017005;28;20053;-68
2022/10/05 04:20:21;;;;;;;4.43;2.92;;;;;;;22.08;47.52;101411.66;5018320;28;20061;-70
2022/10/05 04:23:02;;;;;;;3.38;2.63;;;;;;;22.07;47.49;101416.16;5019095;28;20040;-70
2022/10/05 04:25:38;;;;;;;3.80;2.80;;;;;;;22.03;47.47;101394.44;4997353;28;20029;-70
2022/10/05 04:28:22;;;;;;;3.92;3.10;;;;;;;22.05;47.73;101399.59;5007777;28;20065;-70
2022/10/05 04:30:51;;;;;;;3.25;2.70;;;;;;;22.01;47.71;101396.47;5013514;28;20045;-70
2022/10/05 04:33:16;;;;;;;3.45;2.70;;;;;;;22.08;47.71;101393.94;4998251;28;20029;-70
2022/10/05 04:36:05;;;;;;;4.40;3.25;;;;;;;22.08;47.82;101395.75;5003614;28;20037;-70
2022/10/05 04:38:43;;;;;;;2.97;2.67;;;;;;;22.06;47.56;101389.81;5011281;28;20471;-70
2022/10/05 04:41:47;;;;;;;3.38;2.80;;;;;;;22.03;47.67;101380.38;5006350;28;20029;-70
2022/10/05 04:44:40;;;;;;;3.17;2.88;;;;;;;22.06;47.64;101377.38;5019155;28;20476;-69
2022/10/05 04:47:26;;;;;;;3.15;2.83;;;;;;;22.08;47.73;101374.53;5000180;28;20036;-70
2022/10/05 04:50:16;;;;;;;3.55;3.03;;;;;;;22.07;47.52;101368.41;5007331;28;20029;-70
2022/10/05 04:53:24;;;;;;;5.40;3.00;;;;;;;22.07;47.52;101383.50;5017275;28;20109;-70
2022/10/05 04:55:57;;;;;;;3.05;2.67;;;;;;;22.07;47.62;101372.91;5008313;28;20044;-70
2022/10/05 04:58:55;;;;;;;3.90;3.03;;;;;;;22.08;47.73;101377.19;5014761;28;20042;-70
2022/10/05 05:01:24;;;;;;;3.47;3.00;;;;;;;22.09;47.75;101365.59;4999644;28;20096;-70
2022/10/05 05:04:12;;;;;;;4.15;3.10;;;;;;;22.08;47.68;101372.72;5014110;28;20128;-70
2022/10/05 05:06:59;;;;;;;3.22;2.80;;;;;;;22.06;47.70;101376.56;5009230;28;20033;-70
2022/10/05 05:09:46;;;;;;;3.63;3.00;;;;;;;22.06;47.36;101371.25;4999447;28;20797;-70
2022/10/05 05:12:32;;;;;;;3.08;2.60;;;;;;;22.05;47.59;101365.13;5001009;28;20587;-70
2022/10/05 05:15:20;;;;;;;4.68;3.05;;;;;;;22.07;47.41;101363.09;5015516;28;20098;-70
2022/10/05 05:18:23;;;;;;;3.75;2.90;;;;;;;22.08;47.65;101366.59;4998291;28;20480;-70
2022/10/05 05:21:01;;;;;;;4.15;3.30;;;;;;;22.07;47.62;101368.41;5015321;28;20037;-70
2022/10/05 05:23:37;;;;;;;4.35;2.90;;;;;;;22.05;47.65;101367.78;4997107;28;20037;-71
2022/10/05 05:26:33;;;;;;;3.72;3.00;;;;;;;22.05;47.64;101359.81;4996606;28;21475;-70
2022/10/05 05:29:36;;;;;;;3.53;2.85;;;;;;;22.06;47.49;101368.59;5000047;28;20052;-70
2022/10/05 05:32:40;;;;;;;3.30;2.88;;;;;;;22.05;47.58;101361.66;5011110;28;20029;-68
2022/10/05 05:35:51;;;;;;;3.78;2.70;;;;;;;22.06;47.50;101358.00;5009597;28;20140;-70
2022/10/05 05:38:41;;;;;;;3.83;2.95;;;;;;;22.06;47.50;101363.28;4981304;28;20103;-70
2022/10/05 05:41:16;;;;;;;3.63;2.97;;;;;;;22.08;47.43;101363.94;4996336;28;20037;-70
2022/10/05 05:43:59;;;;;;;3.08;2.55;;;;;;;22.06;47.60;101350.03;5014733;28;20048;-70
2022/10/05 05:46:30;;;;;;;3.75;2.97;;;;;;;22.07;47.70;101360.47;5014623;28;20049;-70
2022/10/05 05:48:57;;;;;;;3.42;2.95;;;;;;;22.05;47.45;101351.84;4994870;28;20040;-70
2022/10/05 05:51:37;;;;;;;4.35;3.20;;;;;;;22.07;47.81;101355.16;5015847;28;20109;-71
2022/10/05 05:54:15;;;;;;;3.90;2.92;;;;;;;22.07;47.29;101351.69;5017307;28;20038;-70
2022/10/05 05:56:52;;;;;;;4.00;3.10;;;;;;;22.08;47.78;101353.31;5000995;28;20033;-70
2022/10/05 05:59:59;;;;;;;4.75;3.40;;;;;;;22.08;47.34;101361.28;5015614;28;20045;-70
2022/10/05 06:02:34;;;;;;;3.92;2.78;;;;;;;22.08;47.69;101371.88;4991636;28;20124;-70
2022/10/05 06:05:21;;;;;;;3.97;3.08;;;;;;;22.07;47.62;101362.28;5001634;28;20593;-70
2022/10/05 06:07:51;;;;;;;3.20;2.72;;;;;;;22.07;47.35;101357.81;5012644;28;20043;-70
2022/10/05 06:10:42;;;;;;;4.20;3.10;;;;;;;22.06;47.79;101372.06;4999857;28;20041;-70
2022/10/05 06:13:22;;;;;;;3.08;2.55;;;;;;;22.06;47.41;101358.81;5002505;28;20501;-70
2022/10/05 06:15:54;;;;;;;3.10;2.80;;;;;;;22.05;47.84;101359.00;4998623;28;20044;-70
2022/10/05 06:18:22;;;;;;;3.25;2.78;;;;;;;22.07;47.41;101371.06;5012808;28;21279;-70
2022/10/05 06:20:56;;;;;;;3.83;3.00;;;;;;;22.06;47.36;101353.50;5002078;28;20045;-70
2022/10/05 06:23:37;;;;;;;3.72;2.90;;;;;;;22.07;47.64;101365.75;5015236;28;20033;-70
2022/10/05 06:26:23;;;;;;;3.35;2.75;;;;;;;22.05;47.48;101349.22;5017989;28;20452;-70
2022/10/05 06:28:56;;;;;;;3.40;2.85;;;;;;;22.07;47.44;101352.50;5016379;28;20049;-70
2022/10/05 06:31:49;;;;;;;3.10;2.72;;;;;;;22.07;47.50;101357.81;5001461;28;20495;-70
2022/10/05 06:34:38;;;;;;;3.28;2.80;;;;;;;22.06;47.82;101363.28;5001880;28;20106;-70
2022/10/05 06:37:09;;;;;;;;;;;;;;;22.04;47.73;101371.41;5004052;28;20056;-70
2022/10/05 06:39:59;;;;;;;4.47;3.17;;;;;;;22.03;47.30;101364.44;5019915;28;19927;-70
2022/10/05 06:42:39;;;;;;;3.92;2.88;;;;;;;22.06;47.34;101358.81;4998836;28;20094;-69
2022/10/05 06:45:47;;;;;;;4.47;2.90;;;;;;;22.06;47.74;101365.94;5018441;28;20042;-69
2022/10/05 06:48:46;;;;;;;3.88;2.90;;;;;;;22.05;47.53;101370.44;5001023;28;20036;-69
2022/10/05 06:51:41;;;;;;;3.00;2.67;;;;;;;22.06;47.74;101371.25;5017527;28;20038;-69
2022/10/05 06:54:29;;;;;;;3.93;3.10;;;;;;;22.05;47.61;101373.06;5003309;28;20037;-69
2022/10/05 06:57:14;;;;;;;3.05;2.65;;;;;;;22.04;47.76;101368.75;4999444;28;20052;-69
2022/10/05 07:00:21;;;;;;;3.90;2.70;;;;;;;22.07;47.73;101375.53;5018041;28;20038;-69
2022/10/05 07:03:04;;;;;;;3.40;2.90;;;;;;;22.08;47.47;101371.88;4992626;28;20748;-69
2022/10/05 07:06:10;;;;;;;3.13;2.80;;;;;;;22.05;47.52;101369.59;4998495;28;20041;-69
2022/10/05 07:08:52;;;;;;;3.90;2.83;;;;;;;22.07;47.47;101373.72;4998549;28;20034;-69
2022/10/05 07:11:39;;;;;;;3.58;2.80;;;;;;;22.07;47.49;101364.94;4995480;28;20037;-69
2022/10/05 07:14:05;;;;;;;3.75;3.25;;;;;;;22.06;47.47;101366.75;5000342;28;20133;-69
2022/10/05 07:16:44;;;;;;;3.95;3.00;;;;;;;22.04;47.51;101358.13;4999079;28;20076;-69
2022/10/05 07:19:43;;;;;;;4.03;2.78;;;;;;;22.05;47.67;101362.47;5000908;28;20053;-69
2022/10/05 07:22:29;;;;;;;3.35;2.85;;;;;;;22.05;47.61;101370.44;4976428;28;20049;-69
2022/10/05 07:25:21;;;;;;;3.95;2.90;;;;;;;22.08;47.62;101375.34;5018763;28;20095;-69
2022/10/05 07:27:56;;;;;;;4.05;2.80;;;;;;;22.07;47.29;101363.09;4996380;28;20032;-69
2022/10/05 07:30:22;;;;;;;3.60;2.90;;;;;;;22.09;47.75;101365.59;5007710;28;20037;-69
2022/10/05 07:33:12;;;;;;;3.33;2.83;;;;;;;22.07;47.66;101357.81;4997874;28;20052;-68
2022/10/05 07:38:55;;;;;;;3.55;2.80;;;;;;;22.05;47.59;101354.50;4994848;28;20195;-68
2022/10/05 07:41:33;;;;;;;3.90;2.78;;;;;;;22.07;47.89;101355.16;5010495;28;20045;-68
2022/10/05 07:44:15;;;;;;;4.32;3.40;;;;;;;22.05;47.79;101354.50;4997610;28;20030;-66
2022/10/05 07:46:53;;;;;;;3.38;2.83;;;;;;;22.08;47.70;101371.88;5011212;28;20045;-68
2022/10/05 07:49:24;;;;;;;3.10;2.80;;;;;;;22.07;47.55;101357.81;5020011;28;20455;-68
2022/10/05 07:51:55;;;;;;;3.20;2.80;;;;;;;22.01;47.79;101353.19;4998572;28;20506;-68
2022/10/05 07:55:06;;;;;;;3.28;2.70;;;;;;;22.05;47.65;101348.38;4994863;28;20061;-68
2022/10/05 07:57:57;;;;;;;4.70;2.95;;;;;;;22.08;47.64;101355.97;5000753;28;20120;-69
2022/10/05 08:00:58;;;;;;;3.30;2.90;;;;;;;22.06;47.88;101348.19;5021115;28;20843;-68
2022/10/05 08:03:27;;;;;;;3.88;2.65;;;;;;;22.07;47.54;101349.03;5009819;28;20467;-69
2022/10/05 08:05:53;;;;;;;3.80;2.60;;;;;;;22.07;47.63;101344.53;5000968;28;20037;-68
2022/10/05 08:08:37;;;;;;;3.63;2.90;;;;;;;22.06;47.85;101342.06;5018576;28;20240;-68
2022/10/05 08:11:28;;;;;;;3.97;2.70;;;;;;;22.07;47.69;101341.06;5019757;28;20540;-68
2022/10/05 08:14:05;;;;;;;4.88;3.00;;;;;;;22.05;47.35;101341.25;5020131;28;20037;-68
2022/10/05 08:16:36;;;;;;;3.92;2.47;;;;;;;22.08;47.71;101335.56;5019404;28;20033;-68
2022/10/05 08:19:12;;;;;;;3.80;2.90;;;;;;;22.01;47.44;101337.28;5018283;28;20037;-68
2022/10/05 08:21:51;;;;;;;3.40;2.55;;;;;;;22.09;47.69;101344.38;5018916;28;20048;-68
2022/10/05 08:24:50;;;;;;;3.85;3.00;;;;;;;22.09;47.67;101345.22;5018573;28;20045;-69
2022/10/05 08:27:51;;;;;;;3.60;3.30;;;;;;;22.10;47.37;101320.34;5008282;28;20384;-68
2022/10/05 08:30:17;;;;;;;3.75;2.70;;;;;;;22.12;47.32;101330.75;4970398;28;20064;-67
2022/10/05 08:32:45;;;;;;;3.75;3.00;;;;;;;22.11;47.37;101323.81;5020407;28;20029;-67
2022/10/05 08:35:34;;;;;;;4.88;2.67;;;;;;;22.11;47.32;101321.16;5019565;28;20484;-68
2022/10/05 08:38:06;;;;;;;4.35;2.50;;;;;;;22.10;47.32;101315.03;5002042;28;20060;-67
2022/10/05 08:40:59;;;;;;;3.60;2.85;;;;;;;22.14;47.19;101310.19;5018207;28;20060;-68
2022/10/05 08:43:49;;;;;;;2.65;2.45;;;;;;;22.14;47.53;101307.53;5014082;28;20399;-69
2022/10/05 08:46:32;;;;;;;;;;;;;;;22.12;47.32;101312.19;5015418;28;20038;-69
2022/10/05 08:49:35;;;;;;;3.35;2.80;;;;;;;22.11;47.71;101311.38;5013761;28;19917;-69
2022/10/05 08:52:27;;;;;;;4.05;2.70;;;;;;;22.12;47.62;101312.19;5015821;28;20041;-69
2022/10/05 08:55:14;;;;;;;4.10;2.80;;;;;;;22.16;47.54;101302.84;5015251;28;20025;-70
2022/10/05 08:58:10;;;;;;;3.25;2.88;;;;;;;22.15;47.49;101306.50;5022209;28;20041;-69
2022/10/05 09:01:02;;;;;;;3.75;2.63;;;;;;;22.13;47.42;101316.50;5020953;28;20048;-69
2022/10/05 09:03:52;;;;;;;4.28;2.90;;;;;;;22.16;47.73;101305.50;5009041;28;20056;-69
2022/10/05 09:06:27;;;;;;;;;;;;;;;22.17;47.35;101302.66;5017095;28;20116;-70
2022/10/05 09:09:08;;;;;;;3.55;3.03;;;;;;;22.19;47.56;101298.00;5016378;28;19967;-70
2022/10/05 09:12:11;;;;;;;4.82;2.78;;;;;;;22.16;47.29;101298.38;5007496;28;20072;-70
2022/10/05 09:14:51;;;;;;;3.08;2.50;;;;;;;22.18;47.21;101298.19;5013517;28;20772;-70
2022/10/05 09:17:22;;;;;;;3.65;2.65;;;;;;;22.19;47.20;101287.38;5017730;28;20034;-70
2022/10/05 09:20:15;;;;;;;3.22;2.60;;;;;;;22.19;47.29;101299.81;5017424;28;20091;-69
2022/10/05 09:22:53;;;;;;;3.10;2.38;;;;;;;22.19;47.59;101290.03;4995146;28;20041;-69
2022/10/05 09:25:40;;;;;;;3.65;2.67;;;;;;;22.20;47.42;101291.69;5019557;28;20103;-69
2022/10/05 09:28:40;;;;;;;3.30;2.63;;;;;;;22.20;47.17;101299.66;5020896;28;20034;-70
2022/10/05 09:31:20;;;;;;;2.63;2.30;;;;;;;22.19;47.46;101282.09;5012774;28;20080;-69
2022/10/05 09:34:04;;;;;;;3.83;2.70;;;;;;;22.23;47.48;101279.88;5019930;28;20092;-69
2022/10/05 09:37:16;;;;;;;3.40;2.67;;;;;;;22.23;47.56;101282.53;5019840;28;20045;-69
2022/10/05 09:40:15;;;;;;;5.00;2.60;;;;;;;22.24;47.13;101287.66;5021029;28;20041;-69
2022/10/05 09:43:09;;;;;;;3.20;2.67;;;;;;;22.22;47.47;101271.09;5020078;28;20025;-69
2022/10/05 09:45:52;;;;;;;3.83;2.67;;;;;;;22.23;47.18;101287.84;5017492;28;20479;-69
2022/10/05 09:48:39;;;;;;;3.78;2.75;;;;;;;22.25;47.21;101280.50;5014920;28;20052;-70
2022/10/05 09:51:19;;;;;;;4.03;2.92;;;;;;;22.24;47.14;101276.22;5019186;28;22068;-70
2022/10/05 09:54:15;;;;;;;3.80;2.80;;;;;;;22.17;47.41;101262.88;5019674;28;21510;-70
2022/10/05 09:57:02;;;;;;;3.55;2.88;;;;;;;22.24;47.44;101285.00;5003057;28;20034;-69
2022/10/05 09:59:52;;;;;;;4.20;3.28;;;;;;;22.24;47.83;101265.59;5021857;28;20125;-69
2022/10/05 10:02:42;;;;;;;3.15;2.85;;;;;;;22.18;48.03;101264.53;5022443;28;20578;-69
2022/10/05 10:05:55;;;;;;;3.50;2.80;;;;;;;22.23;48.13;101263.97;5020518;28;20167;-69
2022/10/05 10:08:56;;;;;;;3.22;2.72;;;;;;;22.25;48.07;101277.84;5023861;28;21974;-69
2022/10/05 10:11:44;;;;;;;3.63;2.53;;;;;;;22.24;47.99;101261.13;5018758;28;20384;-71
2022/10/05 10:14:43;;;;;;;3.58;2.50;;;;;;;22.23;47.96;101272.75;4999446;28;20590;-69
2022/10/05 10:17:42;;;;;;;5.13;2.97;;;;;;;22.27;48.19;101274.03;5014824;28;20052;-69
2022/10/05 10:20:21;;;;;;;3.00;2.50;;;;;;;22.27;48.15;101268.72;5016394;28;20060;-69
2022/10/05 10:22:56;;;;;;;3.03;2.73;;;;;;;22.28;48.17;101277.50;5018417;28;20041;-70
2022/10/05 10:25:24;;;;;;;4.05;3.28;;;;;;;22.25;48.06;101265.41;5016445;28;20079;-69
2022/10/05 10:28:28;;;;;;;4.40;2.97;;;;;;;22.26;47.92;101274.19;5018642;28;20048;-69
2022/10/05 10:31:28;;;;;;;3.97;2.70;;;;;;;22.27;47.95;101292.63;4991466;28;20046;-69
2022/10/05 10:34:11;;;;;;;4.70;2.45;;;;;;;22.28;48.15;101258.94;5020413;28;20029;-70
2022/10/05 10:36:49;;;;;;;3.13;2.75;;;;;;;22.28;48.00;101267.72;5017054;28;20049;-69
2022/10/05 10:39:57;;;;;;;5.03;2.90;;;;;;;22.26;48.10;101264.44;5016020;28;20548;-70
2022/10/05 10:42:38;;;;;;;3.67;2.70;;;;;;;22.24;48.12;101261.13;5015412;28;20034;-70
2022/10/05 10:45:21;;;;;;;3.92;2.78;;;;;;;22.30;48.13;101264.88;5015125;28;20049;-70
2022/10/05 10:47:49;;;;;;;3.53;2.70;;;;;;;22.29;48.53;101261.41;5021879;28;20045;-70
2022/10/05 10:50:29;;;;;;;3.88;2.63;;;;;;;22.30;48.18;101270.19;5019851;28;20183;-70
2022/10/05 10:53:32;;;;;;;3.90;2.50;;;;;;;22.28;48.17;101262.41;4991162;28;20043;-68
2022/10/05 10:56:27;;;;;;;3.30;2.80;;;;;;;22.31;48.54;101261.22;5015625;28;20041;-69
2022/10/05 10:59:29;;;;;;;2.60;2.40;;;;;;;22.29;48.48;101269.38;5014134;28;20042;-69
2022/10/05 11:02:28;;;;;;;4.47;2.95;;;;;;;22.29;48.16;101260.59;5014923;28;20080;-69
2022/10/05 11:05:36;;;;;;;3.28;2.65;;;;;;;22.30;48.18;101262.22;5010196;28;20040;-70
2022/10/05 11:08:39;;;;;;;3.47;2.83;;;;;;;22.30;48.31;101260.41;4955787;28;20050;-69
2022/10/05 11:11:43;;;;;;;2.90;2.58;;;;;;;22.33;48.30;101261.03;5013320;28;20049;-69
2022/10/05 11:14:33;;;;;;;3.75;2.55;;;;;;;22.34;48.41;101246.75;4967141;28;20057;-70
2022/10/05 11:16:58;;;;;;;3.70;2.78;;;;;;;22.33;48.28;101258.38;5011290;28;20033;-69
2022/10/05 11:19:42;;;;;;;3.58;2.83;;;;;;;22.31;48.22;101259.38;5015004;28;20113;-70
2022/10/05 11:22:20;;;;;;;3.45;2.80;;;;;;;22.31;48.23;101262.03;5011010;28;20034;-70
2022/10/05 11:25:19;;;;;;;5.00;2.83;;;;;;;22.32;48.22;101257.56;5015835;28;20132;-69
2022/10/05 11:28:07;;;;;;;3.17;2.87;;;;;;;22.31;48.24;101258.56;5013408;28;20065;-70
2022/10/05 11:30:51;;;;;;;2.97;2.45;;;;;;;22.32;48.65;101265.53;4982213;28;1091196;-70
2022/10/05 11:33:47;;;;;;;3.05;2.70;;;;;;;22.19;48.55;101236.16;5021606;28;20069;-70
2022/10/05 11:36:55;;;;;;;5.18;2.70;;;;;;;22.34;48.45;101255.53;5016424;28;20045;-68
2022/10/05 11:39:49;;;;;;;4.05;3.45;;;;;;;22.24;49.64;101253.16;5011552;28;20045;-67
2022/10/05 11:42:52;;;;;;;5.85;3.30;;;;;;;22.18;49.54;101261.88;5016430;28;20041;-68
2022/10/05 11:45:35;;;;;;;5.43;3.30;;;;;;;22.16;49.50;101252.47;5009017;28;20043;-68
2022/10/05 11:48:26;;;;;;;6.10;3.33;;;;;;;22.12;49.80;101259.97;5015713;28;20045;-68
2022/10/05 11:51:10;;;;;;;7.53;3.20;;;;;;;22.14;49.78;101254.47;5013288;28;20056;-68
2022/10/05 11:53:42;;;;;;;4.95;3.40;;;;;;;22.10;49.94;101258.50;4983262;28;20608;-68
2022/10/05 11:56:28;;;;;;;4.90;3.70;;;;;;;22.14;49.94;101254.47;5014774;28;20108;-68
2022/10/05 11:59:07;;;;;;;3.88;3.47;;;;;;;22.06;50.12;101252.72;5017186;28;20781;-68
2022/10/05 12:01:56;;;;;;;5.03;3.70;;;;;;;22.08;49.70;101256.00;5013503;28;20594;-68
2022/10/05 12:05:06;;;;;;;5.57;3.53;;;;;;;22.09;49.76;101240.94;4998123;28;20050;-68
2022/10/05 12:08:09;;;;;;;7.25;4.03;;;;;;;22.08;49.91;101234.78;4985347;28;20053;-68
2022/10/05 12:10:41;;;;;;;6.22;3.78;;;;;;;22.05;50.03;101232.53;5016332;28;20041;-68
2022/10/05 12:13:24;;;;;;;4.28;3.83;;;;;;;22.05;49.84;101229.88;5014544;28;20037;-69
2022/10/05 12:16:06;;;;;;;4.60;3.42;;;;;;;22.04;49.88;101230.84;5012249;28;20045;-69
2022/10/05 12:18:32;;;;;;;4.82;4.13;;;;;;;22.05;49.92;101224.56;5017484;28;20037;-69
2022/10/05 12:21:06;;;;;;;4.28;3.70;;;;;;;22.03;50.02;101237.97;5013850;28;20045;-69
2022/10/05 12:23:34;;;;;;;4.38;3.45;;;;;;;21.97;50.37;101222.81;5015717;28;20091;-68
2022/10/05 12:26:09;;;;;;;4.40;3.90;;;;;;;21.97;50.33;101220.16;5014327;28;20850;-68
2022/10/05 12:28:39;;;;;;;6.97;3.85;;;;;;;21.96;50.51;101215.03;5011876;28;20118;-69
2022/10/05 12:31:19;;;;;;;6.10;4.30;;;;;;;22.01;50.46;101224.09;5015348;28;20112;-69
2022/10/05 12:34:00;;;;;;;6.03;3.92;;;;;;;22.06;50.36;101214.78;5017049;28;20052;-69
2022/10/05 12:36:38;;;;;;;5.57;4.15;;;;;;;22.05;50.15;101223.75;5012088;28;20120;-68
2022/10/05 12:39:16;;;;;;;4.57;3.85;;;;;;;22.02;50.43;101216.94;5011312;28;20388;-68
2022/10/05 12:41:56;;;;;;;5.90;3.90;;;;;;;22.02;50.71;101222.25;5013384;28;20613;-68
2022/10/05 12:44:58;;;;;;;4.55;3.83;;;;;;;22.00;50.56;101218.97;5010032;28;20081;-68
2022/10/05 12:47:57;;;;;;;4.18;3.78;;;;;;;22.00;50.43;101219.78;5013717;28;20103;-68